createdAt,value
2023-05-21T00:01:49.930Z,3.47
2023-05-21T00:04:17.660Z,4.10
2023-05-21T00:06:44.395Z,3.87
2023-05-21T00:09:12.970Z,2.08
2023-05-21T00:11:39.815Z,2.78
2023-05-21T00:14:06.515Z,6.57
2023-05-21T00:16:33.325Z,3.42
2023-05-21T00:19:00.077Z,2.70
2023-05-21T00:21:26.823Z,3.13
2023-05-21T00:23:54.289Z,5.82
2023-05-21T00:26:21.662Z,3.53
2023-05-21T00:28:48.359Z,3.10
2023-05-21T00:31:16.053Z,3.63
2023-05-21T00:33:43.172Z,3.70
2023-05-21T00:36:14.235Z,2.90
2023-05-21T00:38:43.915Z,4.43
2023-05-21T00:41:11.292Z,2.70
2023-05-21T00:43:41.925Z,4.43
2023-05-21T00:46:12.174Z,3.58
2023-05-21T00:48:39.655Z,3.90
2023-05-21T00:51:07.144Z,2.72
2023-05-21T00:53:36.958Z,4.97
2023-05-21T00:56:04.055Z,4.05
2023-05-21T00:58:33.529Z,2.95
2023-05-21T01:01:06.943Z,5.40
2023-05-21T01:03:38.508Z,6.60
2023-05-21T01:06:06.177Z,3.45
2023-05-21T01:08:34.887Z,3.92
2023-05-21T01:11:04.570Z,5.82
2023-05-21T01:13:32.777Z,5.32
2023-05-21T01:16:01.292Z,4.88
2023-05-21T01:20:56.587Z,5.10
2023-05-21T01:23:23.396Z,3.78
2023-05-21T01:25:50.092Z,3.80
2023-05-21T01:28:16.807Z,3.60
2023-05-21T01:30:44.771Z,4.30
2023-05-21T01:33:40.321Z,4.63
2023-05-21T01:36:15.905Z,6.10
2023-05-21T01:39:09.398Z,5.57
2023-05-21T01:41:41.603Z,3.55
2023-05-21T01:44:10.315Z,5.03
2023-05-21T01:46:39.263Z,3.55
2023-05-21T01:49:08.581Z,4.43
2023-05-21T01:51:36.942Z,6.07
2023-05-21T01:54:03.858Z,4.22
2023-05-21T01:56:33.671Z,4.72
2023-05-21T01:59:00.688Z,4.28
2023-05-21T02:01:30.208Z,6.63
2023-05-21T02:03:58.074Z,4.28
2023-05-21T02:06:25.037Z,4.60
2023-05-21T02:08:52.015Z,4.75
2023-05-21T02:11:18.717Z,4.43
2023-05-21T02:13:46.090Z,4.45
2023-05-21T02:16:15.065Z,4.22
2023-05-21T02:18:46.426Z,5.38
2023-05-21T02:21:13.218Z,4.10
2023-05-21T02:23:39.962Z,5.10
2023-05-21T02:26:06.693Z,4.20
2023-05-21T02:28:34.213Z,4.35
2023-05-21T02:31:01.172Z,4.18
2023-05-21T02:33:28.043Z,4.20
2023-05-21T02:35:54.735Z,3.30
2023-05-21T02:38:23.089Z,4.40
2023-05-21T02:43:17.960Z,5.43
2023-05-21T02:45:44.688Z,4.05
2023-05-21T02:48:11.600Z,4.20
2023-05-21T02:50:38.377Z,4.75
2023-05-21T02:53:05.069Z,4.85
2023-05-21T02:55:31.780Z,4.47
2023-05-21T02:57:58.491Z,5.38
2023-05-21T03:00:25.206Z,5.65
2023-05-21T03:02:52.118Z,4.90
2023-05-21T03:05:19.012Z,5.95
2023-05-21T03:07:45.903Z,5.10
2023-05-21T03:10:12.592Z,4.95
2023-05-21T03:12:39.381Z,4.32
2023-05-21T03:15:06.514Z,4.80
2023-05-21T03:17:33.229Z,7.88
2023-05-21T03:19:59.970Z,4.30
2023-05-21T03:22:26.637Z,4.65
2023-05-21T03:24:53.609Z,5.20
2023-05-21T03:27:20.460Z,4.95
2023-05-21T03:29:48.272Z,4.53
2023-05-21T03:32:15.184Z,4.70
2023-05-21T03:34:42.188Z,4.90
2023-05-21T03:37:08.978Z,4.68
2023-05-21T03:39:35.691Z,4.25
2023-05-21T03:42:05.530Z,5.47
2023-05-21T03:44:32.626Z,4.60
2023-05-21T03:46:59.399Z,4.55
2023-05-21T03:49:26.769Z,4.15
2023-05-21T03:51:54.089Z,4.53
2023-05-21T03:54:22.923Z,4.72
2023-05-21T03:56:49.618Z,5.32
2023-05-21T03:59:16.320Z,4.80
2023-05-21T04:01:43.605Z,4.00
2023-05-21T04:04:10.441Z,4.60
2023-05-21T04:06:38.288Z,4.75
2023-05-21T04:09:05.084Z,5.35
2023-05-21T04:11:32.283Z,3.97
2023-05-21T04:13:59.068Z,4.43
2023-05-21T04:16:25.916Z,6.65
2023-05-21T04:18:55.442Z,6.85
2023-05-21T04:21:23.335Z,4.85
2023-05-21T04:23:50.137Z,4.68
2023-05-21T04:26:16.873Z,9.27
2023-05-21T04:28:45.864Z,4.45
2023-05-21T04:31:13.728Z,6.35
2023-05-21T04:33:42.236Z,4.20
2023-05-21T04:38:39.864Z,4.93
2023-05-21T04:41:06.971Z,4.10
2023-05-21T04:43:33.712Z,5.30
2023-05-21T04:46:01.415Z,4.30
2023-05-21T04:48:28.994Z,4.13
2023-05-21T04:50:56.767Z,5.18
2023-05-21T04:53:23.861Z,4.32
2023-05-21T04:55:50.700Z,4.03
2023-05-21T04:58:20.461Z,5.32
2023-05-21T05:00:47.466Z,4.68
2023-05-21T05:03:15.485Z,4.95
2023-05-21T05:05:42.401Z,8.52
2023-05-21T05:08:09.245Z,4.70
2023-05-21T05:10:36.344Z,5.13
2023-05-21T05:13:03.379Z,5.22
2023-05-21T05:15:30.139Z,4.65
2023-05-21T05:17:57.012Z,5.18
2023-05-21T05:20:23.786Z,5.15
2023-05-21T05:22:50.876Z,5.72
2023-05-21T05:25:17.631Z,4.50
2023-05-21T05:27:44.536Z,5.55
2023-05-21T05:30:11.685Z,4.90
2023-05-21T05:32:38.473Z,6.25
2023-05-21T05:35:05.989Z,4.93
2023-05-21T05:37:33.594Z,6.22
2023-05-21T05:40:00.541Z,5.90
2023-05-21T05:42:27.287Z,5.22
2023-05-21T05:44:53.982Z,4.97
2023-05-21T05:47:21.844Z,5.55
2023-05-21T05:49:48.734Z,4.85
2023-05-21T05:52:15.914Z,5.68
2023-05-21T05:54:42.624Z,7.95
2023-05-21T05:57:09.537Z,8.80
2023-05-21T05:59:37.445Z,5.18
2023-05-21T06:02:04.306Z,4.95
2023-05-21T06:04:31.226Z,5.57
2023-05-21T06:06:58.490Z,5.20
2023-05-21T06:09:25.713Z,11.15
2023-05-21T06:11:52.597Z,5.55
2023-05-21T06:14:19.450Z,5.32
2023-05-21T06:16:46.436Z,5.28
2023-05-21T06:19:13.488Z,5.80
2023-05-21T06:21:40.463Z,5.40
2023-05-21T06:24:07.181Z,5.55
2023-05-21T06:26:36.247Z,5.55
2023-05-21T06:29:03.862Z,5.43
2023-05-21T06:31:34.127Z,6.53
2023-05-21T06:34:01.346Z,5.78
2023-05-21T06:36:30.055Z,6.03
2023-05-21T06:38:58.557Z,6.47
2023-05-21T06:41:26.354Z,5.97
2023-05-21T06:43:53.053Z,6.95
2023-05-21T06:46:19.866Z,7.45
2023-05-21T06:48:46.806Z,6.35
2023-05-21T06:51:13.733Z,5.45
2023-05-21T06:53:40.612Z,5.68
2023-05-21T06:56:07.476Z,8.60
2023-05-21T06:58:34.279Z,5.30
2023-05-21T07:01:01.795Z,5.05
2023-05-21T07:03:28.894Z,5.50
2023-05-21T07:05:56.937Z,6.38
2023-05-21T07:08:23.645Z,5.30
2023-05-21T07:10:50.813Z,5.57
2023-05-21T07:13:17.597Z,5.95
2023-05-21T07:15:44.355Z,6.32
2023-05-21T07:18:12.088Z,7.15
2023-05-21T07:20:38.960Z,6.30
2023-05-21T07:23:05.867Z,6.15
2023-05-21T07:25:32.608Z,5.88
2023-05-21T07:27:59.427Z,6.15
2023-05-21T07:30:26.270Z,8.07
2023-05-21T07:32:53.056Z,5.88
2023-05-21T07:35:20.066Z,6.28
2023-05-21T07:37:49.080Z,5.68
2023-05-21T07:40:15.854Z,5.93
2023-05-21T07:42:42.714Z,7.50
2023-05-21T07:45:09.916Z,7.50
2023-05-21T07:47:36.726Z,5.68
2023-05-21T07:50:03.787Z,6.80
2023-05-21T07:52:30.562Z,8.00
2023-05-21T07:54:57.401Z,5.68
2023-05-21T07:57:24.132Z,6.93
2023-05-21T07:59:51.175Z,6.28
2023-05-21T08:02:17.950Z,9.15
2023-05-21T08:04:47.967Z,6.07
2023-05-21T08:07:16.965Z,6.10
2023-05-21T08:09:43.647Z,7.85
2023-05-21T08:12:10.576Z,6.65
2023-05-21T08:14:37.267Z,6.38
2023-05-21T08:17:04.126Z,6.30
2023-05-21T08:19:31.298Z,7.47
2023-05-21T08:21:58.192Z,6.82
2023-05-21T08:24:26.415Z,12.20
2023-05-21T08:26:53.399Z,6.88
2023-05-21T08:29:20.247Z,6.82
2023-05-21T08:31:47.021Z,8.18
2023-05-21T08:34:13.900Z,10.35
2023-05-21T08:36:43.296Z,8.70
2023-05-21T08:39:10.070Z,7.38
2023-05-21T08:41:38.279Z,6.82
2023-05-21T08:44:11.241Z,7.65
2023-05-21T08:46:40.644Z,7.00
2023-05-21T08:49:12.158Z,7.00
2023-05-21T08:51:39.589Z,7.03
2023-05-21T08:54:09.374Z,7.72
2023-05-21T08:56:36.368Z,6.32
2023-05-21T08:59:03.359Z,7.47
2023-05-21T09:01:35.833Z,7.28
2023-05-21T09:04:16.311Z,8.45
2023-05-21T09:06:47.344Z,7.25
2023-05-21T09:09:38.099Z,7.70
2023-05-21T09:12:05.749Z,9.35
2023-05-21T09:14:32.858Z,5.77
2023-05-21T09:16:59.736Z,7.60
2023-05-21T09:19:26.803Z,7.93
2023-05-21T09:21:53.583Z,10.50
2023-05-21T09:24:25.221Z,5.93
2023-05-21T09:26:52.445Z,6.45
2023-05-21T09:29:19.251Z,6.63
2023-05-21T09:31:46.590Z,6.88
2023-05-21T09:34:14.222Z,7.30
2023-05-21T09:36:41.076Z,7.68
2023-05-21T09:39:08.556Z,8.77
2023-05-21T09:41:36.737Z,7.38
2023-05-21T09:44:03.889Z,7.28
2023-05-21T09:46:39.694Z,7.07
2023-05-21T09:49:06.567Z,6.97
2023-05-21T09:51:33.450Z,7.45
2023-05-21T09:54:01.190Z,7.07
2023-05-21T09:56:30.728Z,6.53
2023-05-21T09:59:04.193Z,7.10
2023-05-21T10:01:33.929Z,8.32
2023-05-21T10:04:02.766Z,7.38
2023-05-21T10:06:32.300Z,8.52
2023-05-21T10:09:04.633Z,8.60
2023-05-21T10:11:33.580Z,7.20
2023-05-21T10:14:27.837Z,6.63
2023-05-21T10:16:55.862Z,7.07
2023-05-21T10:19:24.973Z,7.00
2023-05-21T10:21:53.532Z,7.55
2023-05-21T10:26:49.452Z,13.85
2023-05-21T10:29:19.358Z,6.93
2023-05-21T10:31:49.872Z,6.88
2023-05-21T10:34:17.492Z,7.75
2023-05-21T10:36:48.945Z,6.50
2023-05-21T10:39:16.845Z,6.80
2023-05-21T10:41:59.239Z,7.75
2023-05-21T10:44:51.844Z,7.05
2023-05-21T10:47:47.979Z,7.00
2023-05-21T10:50:56.232Z,7.35
2023-05-21T10:53:50.970Z,6.95
2023-05-21T10:56:28.756Z,7.25
2023-05-21T10:59:01.366Z,6.93
2023-05-21T11:01:35.621Z,8.40
2023-05-21T11:04:04.400Z,7.22
2023-05-21T11:06:31.236Z,8.57
2023-05-21T11:09:02.153Z,8.55
2023-05-21T11:11:51.834Z,8.10
2023-05-21T11:14:41.198Z,7.28
2023-05-21T11:17:14.644Z,7.88
2023-05-21T11:19:48.948Z,8.05
2023-05-21T11:22:28.250Z,8.07
2023-05-21T11:24:56.217Z,8.00
2023-05-21T11:27:42.014Z,7.85
2023-05-21T11:30:17.223Z,7.20
2023-05-21T11:33:10.752Z,6.70
2023-05-21T11:35:46.584Z,6.50
2023-05-21T11:38:13.329Z,7.20
2023-05-21T11:40:51.615Z,7.32
2023-05-21T11:45:47.222Z,8.00
2023-05-21T11:48:14.481Z,6.78
2023-05-21T11:50:42.507Z,7.82
2023-05-21T11:53:12.085Z,7.35
2023-05-21T11:55:43.522Z,9.20
2023-05-21T11:58:13.727Z,7.30
2023-05-21T12:00:41.137Z,7.90
2023-05-21T12:03:12.898Z,6.93
2023-05-21T12:05:49.272Z,6.93
2023-05-21T12:08:27.149Z,6.80
2023-05-21T12:11:01.708Z,7.97
2023-05-21T12:13:28.830Z,7.68
2023-05-21T12:15:55.601Z,7.85
2023-05-21T12:18:22.553Z,7.38
2023-05-21T12:20:51.970Z,6.97
2023-05-21T12:23:24.509Z,8.10
2023-05-21T12:25:53.521Z,8.30
2023-05-21T12:28:24.728Z,7.40
2023-05-21T12:30:53.542Z,8.93
2023-05-21T12:33:22.460Z,6.82
2023-05-21T12:35:52.364Z,6.72
2023-05-21T12:38:19.673Z,9.13
2023-05-21T12:40:46.899Z,7.10
2023-05-21T12:43:14.085Z,6.63
2023-05-21T12:45:41.480Z,6.20
2023-05-21T12:48:09.105Z,7.73
2023-05-21T12:50:40.565Z,7.50
2023-05-21T12:53:11.127Z,5.78
2023-05-21T12:55:38.656Z,7.65
2023-05-21T12:58:08.458Z,7.87
2023-05-21T13:00:36.461Z,11.05
2023-05-21T13:03:06.239Z,6.72
2023-05-21T13:05:33.935Z,10.77
2023-05-21T13:08:01.193Z,6.53
2023-05-21T13:10:28.370Z,7.40
2023-05-21T13:12:55.475Z,8.85
2023-05-21T13:15:22.653Z,9.85
2023-05-21T13:17:50.610Z,5.83
2023-05-21T13:20:21.794Z,7.13
2023-05-21T13:22:50.325Z,8.00
2023-05-21T13:27:46.088Z,8.55
2023-05-21T13:30:13.245Z,7.68
2023-05-21T13:32:41.395Z,7.20
2023-05-21T13:35:08.783Z,7.10
2023-05-21T13:37:36.438Z,6.07
2023-05-21T13:40:16.796Z,7.63
2023-05-21T13:42:48.864Z,5.75
2023-05-21T13:45:17.212Z,6.18
2023-05-21T13:50:13.980Z,8.48
2023-05-21T13:52:41.444Z,8.95
2023-05-21T13:55:09.691Z,7.68
2023-05-21T13:57:37.020Z,7.73
2023-05-21T14:00:04.835Z,6.88
2023-05-21T14:02:32.097Z,5.72
2023-05-21T14:04:59.229Z,5.40
2023-05-21T14:07:26.932Z,6.47
2023-05-21T14:09:54.229Z,6.15
2023-05-21T14:12:21.786Z,10.05
2023-05-21T14:14:50.091Z,6.87
2023-05-21T14:17:19.336Z,6.72
2023-05-21T14:19:47.964Z,5.53
2023-05-21T14:22:15.280Z,4.43
2023-05-21T14:24:45.060Z,7.18
2023-05-21T14:27:14.556Z,6.07
2023-05-21T14:29:42.573Z,7.80
2023-05-21T14:32:09.731Z,6.60
2023-05-21T14:34:38.515Z,6.50
2023-05-21T14:37:05.873Z,4.72
2023-05-21T14:39:33.060Z,9.27
2023-05-21T14:42:00.256Z,7.68
2023-05-21T14:44:27.560Z,6.45
2023-05-21T14:46:54.736Z,7.68
2023-05-21T14:49:21.899Z,9.65
2023-05-21T14:51:50.607Z,8.88
2023-05-21T14:54:17.924Z,4.93
2023-05-21T14:56:45.088Z,8.02
2023-05-21T14:59:12.964Z,8.15
2023-05-21T15:01:42.436Z,7.50
2023-05-21T15:04:10.107Z,5.53
2023-05-21T15:06:37.442Z,9.48
2023-05-21T15:09:04.654Z,7.22
2023-05-21T15:11:33.704Z,5.85
2023-05-21T15:14:01.004Z,7.22
2023-05-21T15:16:28.168Z,5.18
2023-05-21T15:18:55.483Z,6.20
2023-05-21T15:21:22.805Z,6.82
2023-05-21T15:23:49.920Z,8.57
2023-05-21T15:26:17.191Z,7.68
2023-05-21T15:28:44.647Z,7.00
2023-05-21T15:31:12.575Z,6.47
2023-05-21T15:33:39.832Z,7.47
2023-05-21T15:36:07.212Z,6.85
2023-05-21T15:38:34.365Z,9.07
2023-05-21T15:41:01.961Z,6.63
2023-05-21T15:43:29.337Z,11.02
2023-05-21T15:45:56.504Z,5.40
2023-05-21T15:48:23.838Z,7.30
2023-05-21T15:50:51.006Z,10.88
2023-05-21T15:53:18.236Z,6.65
2023-05-21T15:55:46.464Z,7.20
2023-05-21T15:58:13.686Z,13.60
2023-05-21T16:00:41.045Z,8.43
2023-05-21T16:03:08.519Z,7.10
2023-05-21T16:05:38.902Z,10.10
2023-05-21T16:08:06.252Z,7.18
2023-05-21T16:10:33.487Z,7.53
2023-05-21T16:13:00.922Z,7.28
2023-05-21T16:15:32.254Z,7.65
2023-05-21T16:17:59.438Z,6.50
2023-05-21T16:20:26.713Z,7.00
2023-05-21T16:22:55.360Z,6.32
2023-05-21T16:25:22.520Z,6.60
2023-05-21T16:27:49.767Z,9.82
2023-05-21T16:30:16.889Z,6.35
2023-05-21T16:32:44.073Z,6.47
2023-05-21T16:35:11.346Z,7.15
2023-05-21T16:37:38.490Z,6.88
2023-05-21T16:40:05.965Z,5.75
2023-05-21T16:42:33.154Z,6.53
2023-05-21T16:45:00.367Z,8.40
2023-05-21T16:47:27.604Z,6.88
2023-05-21T16:49:55.865Z,9.80
2023-05-21T16:52:25.153Z,9.02
2023-05-21T16:54:52.259Z,7.40
2023-05-21T16:57:20.880Z,8.70
2023-05-21T16:59:48.120Z,7.05
2023-05-21T17:02:15.421Z,9.13
2023-05-21T17:04:42.553Z,11.73
2023-05-21T17:07:09.690Z,8.18
2023-05-21T17:09:36.808Z,6.45
2023-05-21T17:12:04.236Z,6.30
2023-05-21T17:14:34.170Z,7.40
2023-05-21T17:17:02.173Z,7.28
2023-05-21T17:19:29.402Z,7.50
2023-05-21T17:21:56.686Z,7.55
2023-05-21T17:24:23.977Z,7.63
2023-05-21T17:26:51.112Z,10.07
2023-05-21T17:29:18.738Z,9.25
2023-05-21T17:31:46.174Z,9.15
2023-05-21T17:34:13.389Z,8.50
2023-05-21T17:36:40.944Z,8.48
2023-05-21T17:39:08.519Z,10.40
2023-05-21T17:41:35.816Z,14.52
2023-05-21T17:44:02.962Z,9.10
2023-05-21T17:46:30.122Z,13.35
2023-05-21T17:48:57.652Z,10.73
2023-05-21T17:51:26.027Z,10.17
2023-05-21T17:56:21.501Z,9.45
2023-05-21T17:58:50.238Z,8.90
2023-05-21T18:01:17.465Z,9.15
2023-05-21T18:03:46.149Z,8.82
2023-05-21T18:06:13.483Z,10.13
2023-05-21T18:08:40.724Z,9.75
2023-05-21T18:11:07.885Z,10.77
2023-05-21T18:13:35.034Z,10.60
2023-05-21T18:16:03.211Z,11.73
2023-05-21T18:18:30.848Z,10.95
2023-05-21T18:20:58.170Z,11.20
2023-05-21T18:23:28.555Z,9.82
2023-05-21T18:25:56.198Z,10.85
2023-05-21T18:28:23.463Z,13.32
2023-05-21T18:30:50.806Z,10.63
2023-05-21T18:33:17.973Z,11.38
2023-05-21T18:35:45.199Z,11.48
2023-05-21T18:38:13.440Z,11.77
2023-05-21T18:40:40.618Z,10.93
2023-05-21T18:43:10.719Z,15.25
2023-05-21T18:45:38.021Z,11.75
2023-05-21T18:48:05.477Z,12.55
2023-05-21T18:50:34.191Z,12.20
2023-05-21T18:53:01.501Z,14.60
2023-05-21T18:55:28.672Z,13.18
2023-05-21T18:57:55.962Z,12.10
2023-05-21T19:00:23.363Z,10.85
2023-05-21T19:02:50.656Z,11.68
2023-05-21T19:05:17.999Z,12.45
2023-05-21T19:07:46.542Z,10.90
2023-05-21T19:12:42.438Z,12.38
2023-05-21T19:17:39.008Z,12.35
2023-05-21T19:20:07.724Z,11.63
2023-05-21T19:22:37.011Z,11.85
2023-05-21T19:25:04.779Z,12.60
2023-05-21T19:27:31.994Z,13.45
2023-05-21T19:29:59.172Z,12.75
2023-05-21T19:32:26.385Z,13.90
2023-05-21T19:34:57.434Z,13.13
2023-05-21T19:37:24.596Z,13.57
2023-05-21T19:39:52.772Z,13.77
2023-05-21T19:42:21.413Z,13.98
2023-05-21T19:44:48.728Z,11.45
2023-05-21T19:47:15.963Z,14.45
2023-05-21T19:49:43.323Z,12.00
2023-05-21T19:52:12.031Z,12.45
2023-05-21T19:54:39.405Z,13.65
2023-05-21T19:57:06.901Z,14.40
2023-05-21T19:59:34.598Z,13.53
2023-05-21T20:02:01.848Z,12.18
2023-05-21T20:04:29.089Z,13.05
2023-05-21T20:06:56.208Z,16.40
2023-05-21T20:09:23.376Z,13.70
2023-05-21T20:11:50.576Z,14.40
2023-05-21T20:14:17.690Z,12.50
2023-05-21T20:16:46.962Z,13.05
2023-05-21T20:19:15.264Z,14.57
2023-05-21T20:21:42.795Z,13.20
2023-05-21T20:24:11.202Z,12.93
2023-05-21T20:26:39.897Z,12.95
2023-05-21T20:29:08.155Z,12.23
2023-05-21T20:31:35.880Z,13.35
2023-05-21T20:34:07.853Z,15.00
2023-05-21T20:36:36.035Z,12.68
2023-05-21T20:39:03.658Z,12.52
2023-05-21T20:41:37.574Z,25.13
2023-05-21T20:44:05.468Z,13.30
2023-05-21T20:46:33.218Z,12.80
2023-05-21T20:49:00.507Z,16.13
2023-05-21T20:51:28.711Z,12.90
2023-05-21T20:53:56.085Z,12.70
2023-05-21T20:56:37.491Z,14.27
2023-05-21T20:59:10.449Z,12.10
2023-05-21T21:01:38.198Z,12.75
2023-05-21T21:04:05.511Z,20.05
2023-05-21T21:06:33.806Z,14.57
2023-05-21T21:09:00.981Z,12.43
2023-05-21T21:11:28.179Z,13.90
2023-05-21T21:13:55.338Z,15.23
2023-05-21T21:16:22.519Z,11.88
2023-05-21T21:18:49.705Z,13.88
2023-05-21T21:21:16.959Z,13.75
2023-05-21T21:23:44.257Z,14.95
2023-05-21T21:26:11.409Z,13.02
2023-05-21T21:28:38.602Z,20.17
2023-05-21T21:31:05.858Z,13.15
2023-05-21T21:33:33.167Z,13.68
2023-05-21T21:36:01.154Z,15.85
2023-05-21T21:38:28.272Z,15.88
2023-05-21T21:40:55.736Z,14.82
2023-05-21T21:43:22.934Z,14.75
2023-05-21T21:45:50.086Z,13.45
2023-05-21T21:48:17.245Z,13.27
2023-05-21T21:50:44.422Z,16.30
2023-05-21T21:53:12.668Z,15.68
2023-05-21T21:55:40.060Z,16.50
2023-05-21T21:58:07.274Z,14.52
2023-05-21T22:00:34.745Z,16.23
2023-05-21T22:03:01.984Z,15.75
2023-05-21T22:05:31.391Z,15.70
2023-05-21T22:07:58.614Z,14.27
2023-05-21T22:10:25.812Z,14.55
2023-05-21T22:12:52.973Z,14.73
2023-05-21T22:15:28.727Z,14.25
2023-05-21T22:17:56.051Z,18.45
2023-05-21T22:20:25.966Z,17.42
2023-05-21T22:22:54.851Z,14.23
2023-05-21T22:25:22.509Z,17.48
2023-05-21T22:27:49.670Z,15.45
2023-05-21T22:30:16.813Z,14.45
2023-05-21T22:32:43.978Z,19.17
2023-05-21T22:35:12.531Z,16.58
2023-05-21T22:40:07.434Z,15.60
2023-05-21T22:42:36.252Z,15.10
2023-05-21T22:45:03.721Z,17.05
2023-05-21T22:47:32.134Z,16.75
2023-05-21T22:52:28.803Z,15.90
2023-05-21T22:54:57.781Z,19.30
2023-05-21T22:57:24.950Z,17.08
2023-05-21T22:59:51.652Z,15.70
2023-05-21T23:02:18.424Z,15.13
2023-05-21T23:04:45.408Z,16.75
2023-05-21T23:07:12.568Z,16.33
2023-05-21T23:09:39.392Z,16.45
2023-05-21T23:12:06.670Z,15.55
2023-05-21T23:14:34.429Z,17.10
2023-05-21T23:17:04.459Z,16.90
2023-05-21T23:19:31.613Z,17.83
2023-05-21T23:21:58.514Z,18.85
2023-05-21T23:24:25.278Z,16.30
2023-05-21T23:26:52.576Z,20.45
2023-05-21T23:29:19.272Z,15.65
2023-05-21T23:31:47.701Z,18.75
2023-05-21T23:36:42.285Z,17.13
2023-05-21T23:39:09.347Z,16.67
2023-05-21T23:41:36.430Z,18.55
2023-05-21T23:44:03.347Z,18.13
2023-05-21T23:46:30.071Z,16.65
2023-05-21T23:48:56.785Z,16.80
2023-05-21T23:51:23.568Z,17.35
2023-05-21T23:53:50.261Z,17.27
2023-05-21T23:56:16.949Z,17.73
2023-05-21T23:58:43.643Z,15.82
